sensor_id;sensor_type;location;lat;lon;timestamp;P1;durP1;ratioP1;P2;durP2;ratioP2
1164;SDS011;571;50.930;6.926;2022-10-13T12:20:51;8.20;;;5.80;;
1164;SDS011;571;50.930;6.926;2022-10-13T12:23:19;10.83;;;5.83;;
1164;SDS011;571;50.930;6.926;2022-10-13T12:25:46;8.83;;;5.57;;
1164;SDS011;571;50.930;6.926;2022-10-13T12:28:20;6.17;;;5.30;;
1164;SDS011;571;50.930;6.926;2022-10-13T12:30:50;12.70;;;5.93;;
1164;SDS011;571;50.930;6.926;2022-10-13T12:33:25;6.63;;;5.80;;
1164;SDS011;571;50.930;6.926;2022-10-13T12:35:56;10.30;;;6.80;;
1164;SDS011;571;50.930;6.926;2022-10-13T12:38:37;6.17;;;5.57;;
1164;SDS011;571;50.930;6.926;2022-10-13T12:41:07;6.30;;;5.70;;
1164;SDS011;571;50.930;6.926;2022-10-13T12:43:39;12.63;;;6.43;;
1164;SDS011;571;50.930;6.926;2022-10-13T12:46:10;7.97;;;6.10;;
1164;SDS011;571;50.930;6.926;2022-10-13T12:48:38;8.70;;;6.93;;
1164;SDS011;571;50.930;6.926;2022-10-13T12:51:14;11.37;;;7.47;;
1164;SDS011;571;50.930;6.926;2022-10-13T12:53:45;11.93;;;7.97;;
1164;SDS011;571;50.930;6.926;2022-10-13T12:56:21;11.60;;;7.33;;
1164;SDS011;571;50.930;6.926;2022-10-13T12:58:52;10.10;;;7.80;;
1164;SDS011;571;50.930;6.926;2022-10-13T13:01:24;9.50;;;7.10;;
1164;SDS011;571;50.930;6.926;2022-10-13T13:03:57;9.63;;;6.30;;
1164;SDS011;571;50.930;6.926;2022-10-13T13:06:29;7.87;;;7.07;;
1164;SDS011;571;50.930;6.926;2022-10-13T13:12:04;9.73;;;7.37;;
1164;SDS011;571;50.930;6.926;2022-10-13T13:14:49;11.77;;;7.80;;
1164;SDS011;571;50.930;6.926;2022-10-13T13:17:26;11.70;;;7.40;;
1164;SDS011;571;50.930;6.926;2022-10-13T13:19:55;8.00;;;6.77;;
1164;SDS011;571;50.930;6.926;2022-10-13T13:22:23;8.70;;;6.83;;
1164;SDS011;571;50.930;6.926;2022-10-13T13:24:51;10.63;;;7.73;;
1164;SDS011;571;50.930;6.926;2022-10-13T13:27:20;11.83;;;8.73;;
1164;SDS011;571;50.930;6.926;2022-10-13T13:29:50;10.53;;;7.80;;
1164;SDS011;571;50.930;6.926;2022-10-13T13:32:18;12.33;;;6.77;;
1164;SDS011;571;50.930;6.926;2022-10-13T13:34:46;6.63;;;5.80;;
1164;SDS011;571;50.930;6.926;2022-10-13T13:37:16;8.73;;;7.93;;
1164;SDS011;571;50.930;6.926;2022-10-13T13:39:50;9.10;;;8.17;;
1164;SDS011;571;50.930;6.926;2022-10-13T13:42:17;8.20;;;7.03;;
1164;SDS011;571;50.930;6.926;2022-10-13T13:44:44;11.47;;;7.27;;
1164;SDS011;571;50.930;6.926;2022-10-13T13:47:13;9.47;;;7.33;;
1164;SDS011;571;50.930;6.926;2022-10-13T13:49:42;8.40;;;6.77;;
1164;SDS011;571;50.930;6.926;2022-10-13T13:52:09;7.90;;;7.10;;
1164;SDS011;571;50.930;6.926;2022-10-13T13:54:36;13.80;;;9.07;;
1164;SDS011;571;50.930;6.926;2022-10-13T13:57:04;9.37;;;8.00;;
1164;SDS011;571;50.930;6.926;2022-10-13T13:59:31;12.80;;;9.07;;
1164;SDS011;571;50.930;6.926;2022-10-13T14:01:58;14.03;;;10.20;;
1164;SDS011;571;50.930;6.926;2022-10-13T14:04:26;11.67;;;9.00;;
1164;SDS011;571;50.930;6.926;2022-10-13T14:06:53;10.60;;;9.50;;
1164;SDS011;571;50.930;6.926;2022-10-13T14:09:22;15.63;;;9.80;;
1164;SDS011;571;50.930;6.926;2022-10-13T14:11:49;12.20;;;9.60;;
1164;SDS011;571;50.930;6.926;2022-10-13T14:14:18;15.80;;;10.83;;
1164;SDS011;571;50.930;6.926;2022-10-13T14:16:45;11.83;;;9.43;;
1164;SDS011;571;50.930;6.926;2022-10-13T14:19:14;11.40;;;8.07;;
1164;SDS011;571;50.930;6.926;2022-10-13T14:21:41;10.57;;;9.50;;
1164;SDS011;571;50.930;6.926;2022-10-13T14:24:10;9.73;;;8.27;;
1164;SDS011;571;50.930;6.926;2022-10-13T14:26:37;12.10;;;8.20;;
1164;SDS011;571;50.930;6.926;2022-10-13T14:29:04;12.50;;;9.50;;
1164;SDS011;571;50.930;6.926;2022-10-13T14:31:32;11.33;;;10.03;;
1164;SDS011;571;50.930;6.926;2022-10-13T14:33:59;14.20;;;9.63;;
1164;SDS011;571;50.930;6.926;2022-10-13T14:36:26;12.80;;;9.00;;
1164;SDS011;571;50.930;6.926;2022-10-13T14:38:53;13.20;;;9.17;;
1164;SDS011;571;50.930;6.926;2022-10-13T14:41:19;11.70;;;10.03;;
1164;SDS011;571;50.930;6.926;2022-10-13T14:43:50;12.43;;;9.80;;
1164;SDS011;571;50.930;6.926;2022-10-13T14:46:19;13.63;;;10.30;;
1164;SDS011;571;50.930;6.926;2022-10-13T14:48:47;11.33;;;9.90;;
1164;SDS011;571;50.930;6.926;2022-10-13T14:51:14;12.30;;;9.33;;
1164;SDS011;571;50.930;6.926;2022-10-13T14:53:43;9.37;;;8.40;;
1164;SDS011;571;50.930;6.926;2022-10-13T14:56:14;10.90;;;8.97;;
1164;SDS011;571;50.930;6.926;2022-10-13T14:58:42;10.77;;;9.13;;
1164;SDS011;571;50.930;6.926;2022-10-13T15:01:09;12.30;;;10.60;;
1164;SDS011;571;50.930;6.926;2022-10-13T15:03:36;9.43;;;8.40;;
1164;SDS011;571;50.930;6.926;2022-10-13T15:06:04;12.03;;;10.43;;
1164;SDS011;571;50.930;6.926;2022-10-13T15:08:32;12.53;;;10.17;;
1164;SDS011;571;50.930;6.926;2022-10-13T15:10:59;14.10;;;9.50;;
1164;SDS011;571;50.930;6.926;2022-10-13T15:13:27;11.73;;;10.53;;
1164;SDS011;571;50.930;6.926;2022-10-13T15:15:54;12.13;;;10.83;;
1164;SDS011;571;50.930;6.926;2022-10-13T15:18:26;13.10;;;9.50;;
1164;SDS011;571;50.930;6.926;2022-10-13T15:20:53;14.33;;;9.20;;
1164;SDS011;571;50.930;6.926;2022-10-13T15:23:21;11.93;;;9.20;;
1164;SDS011;571;50.930;6.926;2022-10-13T15:25:48;14.10;;;10.10;;
1164;SDS011;571;50.930;6.926;2022-10-13T15:28:16;13.10;;;10.07;;
1164;SDS011;571;50.930;6.926;2022-10-13T15:30:43;19.10;;;8.87;;
1164;SDS011;571;50.930;6.926;2022-10-13T15:33:10;12.67;;;9.63;;
1164;SDS011;571;50.930;6.926;2022-10-13T15:35:37;12.40;;;9.17;;
1164;SDS011;571;50.930;6.926;2022-10-13T15:38:03;11.13;;;10.00;;
1164;SDS011;571;50.930;6.926;2022-10-13T15:40:32;16.03;;;10.00;;
1164;SDS011;571;50.930;6.926;2022-10-13T15:43:00;14.27;;;10.53;;
1164;SDS011;571;50.930;6.926;2022-10-13T15:45:27;12.83;;;9.57;;
1164;SDS011;571;50.930;6.926;2022-10-13T15:47:56;13.60;;;9.23;;
1164;SDS011;571;50.930;6.926;2022-10-13T15:50:24;16.67;;;8.97;;
1164;SDS011;571;50.930;6.926;2022-10-13T15:52:53;16.60;;;9.83;;
1164;SDS011;571;50.930;6.926;2022-10-13T15:55:20;16.90;;;9.87;;
1164;SDS011;571;50.930;6.926;2022-10-13T15:57:49;18.03;;;11.90;;
1164;SDS011;571;50.930;6.926;2022-10-13T16:00:16;12.53;;;10.17;;
1164;SDS011;571;50.930;6.926;2022-10-13T16:02:43;10.47;;;9.33;;
1164;SDS011;571;50.930;6.926;2022-10-13T16:05:11;14.40;;;9.50;;
1164;SDS011;571;50.930;6.926;2022-10-13T16:07:42;10.80;;;9.67;;
1164;SDS011;571;50.930;6.926;2022-10-13T16:10:10;12.20;;;9.50;;
1164;SDS011;571;50.930;6.926;2022-10-13T16:12:38;10.43;;;9.33;;
1164;SDS011;571;50.930;6.926;2022-10-13T16:15:08;15.97;;;9.90;;
1164;SDS011;571;50.930;6.926;2022-10-13T16:17:36;10.40;;;9.27;;
1164;SDS011;571;50.930;6.926;2022-10-13T16:20:03;11.87;;;9.10;;
1164;SDS011;571;50.930;6.926;2022-10-13T16:22:30;12.43;;;9.20;;
1164;SDS011;571;50.930;6.926;2022-10-13T16:24:57;10.17;;;9.07;;
1164;SDS011;571;50.930;6.926;2022-10-13T16:27:24;16.13;;;8.73;;
1164;SDS011;571;50.930;6.926;2022-10-13T16:29:51;11.17;;;9.87;;
1164;SDS011;571;50.930;6.926;2022-10-13T16:32:19;11.67;;;9.77;;
1164;SDS011;571;50.930;6.926;2022-10-13T16:34:46;17.13;;;9.87;;
1164;SDS011;571;50.930;6.926;2022-10-13T16:37:14;11.00;;;9.47;;
1164;SDS011;571;50.930;6.926;2022-10-13T16:39:41;15.00;;;9.00;;
1164;SDS011;571;50.930;6.926;2022-10-13T16:42:07;15.37;;;10.17;;
1164;SDS011;571;50.930;6.926;2022-10-13T16:44:34;15.60;;;11.17;;
1164;SDS011;571;50.930;6.926;2022-10-13T16:47:01;15.67;;;10.17;;
1164;SDS011;571;50.930;6.926;2022-10-13T16:49:31;13.57;;;11.50;;
1164;SDS011;571;50.930;6.926;2022-10-13T16:51:59;11.03;;;9.63;;
1164;SDS011;571;50.930;6.926;2022-10-13T16:54:25;12.87;;;10.60;;
1164;SDS011;571;50.930;6.926;2022-10-13T16:56:52;17.33;;;9.47;;
1164;SDS011;571;50.930;6.926;2022-10-13T16:59:19;13.30;;;10.90;;
1164;SDS011;571;50.930;6.926;2022-10-13T17:01:45;15.50;;;11.03;;
1164;SDS011;571;50.930;6.926;2022-10-13T17:04:13;15.13;;;12.40;;
1164;SDS011;571;50.930;6.926;2022-10-13T17:06:41;17.77;;;11.53;;
1164;SDS011;571;50.930;6.926;2022-10-13T17:09:08;18.10;;;11.83;;
1164;SDS011;571;50.930;6.926;2022-10-13T17:11:36;18.23;;;12.37;;
1164;SDS011;571;50.930;6.926;2022-10-13T17:14:02;15.40;;;11.13;;
1164;SDS011;571;50.930;6.926;2022-10-13T17:16:30;12.53;;;11.20;;
1164;SDS011;571;50.930;6.926;2022-10-13T17:18:58;21.83;;;11.93;;
1164;SDS011;571;50.930;6.926;2022-10-13T17:21:24;12.60;;;10.20;;
1164;SDS011;571;50.930;6.926;2022-10-13T17:23:53;15.87;;;11.20;;
1164;SDS011;571;50.930;6.926;2022-10-13T17:26:20;19.07;;;12.40;;
1164;SDS011;571;50.930;6.926;2022-10-13T17:28:47;17.07;;;12.30;;
1164;SDS011;571;50.930;6.926;2022-10-13T17:31:14;12.77;;;10.87;;
1164;SDS011;571;50.930;6.926;2022-10-13T17:33:42;11.97;;;10.83;;
1164;SDS011;571;50.930;6.926;2022-10-13T17:36:11;12.10;;;10.23;;
1164;SDS011;571;50.930;6.926;2022-10-13T17:38:40;16.63;;;13.70;;
1164;SDS011;571;50.930;6.926;2022-10-13T17:41:08;13.23;;;11.80;;
1164;SDS011;571;50.930;6.926;2022-10-13T17:43:36;16.23;;;12.50;;
1164;SDS011;571;50.930;6.926;2022-10-13T17:46:06;15.20;;;11.67;;
1164;SDS011;571;50.930;6.926;2022-10-13T17:48:34;19.10;;;12.73;;
1164;SDS011;571;50.930;6.926;2022-10-13T17:51:01;18.83;;;13.33;;
1164;SDS011;571;50.930;6.926;2022-10-13T17:53:27;13.97;;;12.40;;
1164;SDS011;571;50.930;6.926;2022-10-13T17:55:57;16.40;;;12.53;;
1164;SDS011;571;50.930;6.926;2022-10-13T17:58:26;15.20;;;13.33;;
1164;SDS011;571;50.930;6.926;2022-10-13T18:00:53;14.13;;;11.77;;
1164;SDS011;571;50.930;6.926;2022-10-13T18:03:20;15.50;;;11.80;;
1164;SDS011;571;50.930;6.926;2022-10-13T18:05:48;16.07;;;12.37;;
1164;SDS011;571;50.930;6.926;2022-10-13T18:08:15;18.43;;;13.77;;
1164;SDS011;571;50.930;6.926;2022-10-13T18:10:41;17.97;;;15.30;;
1164;SDS011;571;50.930;6.926;2022-10-13T18:13:08;21.13;;;16.10;;
1164;SDS011;571;50.930;6.926;2022-10-13T18:15:36;19.63;;;13.90;;
1164;SDS011;571;50.930;6.926;2022-10-13T18:18:04;17.70;;;15.80;;
1164;SDS011;571;50.930;6.926;2022-10-13T18:20:31;18.10;;;15.47;;
1164;SDS011;571;50.930;6.926;2022-10-13T18:23:01;20.23;;;15.40;;
1164;SDS011;571;50.930;6.926;2022-10-13T18:25:27;12.90;;;11.60;;
1164;SDS011;571;50.930;6.926;2022-10-13T18:27:54;17.20;;;13.33;;
1164;SDS011;571;50.930;6.926;2022-10-13T18:30:21;17.60;;;11.43;;
1164;SDS011;571;50.930;6.926;2022-10-13T18:32:49;11.13;;;10.03;;
1164;SDS011;571;50.930;6.926;2022-10-13T18:35:16;13.07;;;11.20;;
1164;SDS011;571;50.930;6.926;2022-10-13T18:37:42;11.47;;;10.37;;
1164;SDS011;571;50.930;6.926;2022-10-13T18:40:14;13.77;;;9.90;;
1164;SDS011;571;50.930;6.926;2022-10-13T18:42:40;13.33;;;11.10;;
1164;SDS011;571;50.930;6.926;2022-10-13T18:45:08;17.10;;;13.03;;
1164;SDS011;571;50.930;6.926;2022-10-13T18:47:36;16.73;;;10.87;;
1164;SDS011;571;50.930;6.926;2022-10-13T18:50:05;11.63;;;10.43;;
1164;SDS011;571;50.930;6.926;2022-10-13T18:52:33;16.57;;;11.57;;
1164;SDS011;571;50.930;6.926;2022-10-13T18:54:59;15.00;;;12.67;;
1164;SDS011;571;50.930;6.926;2022-10-13T18:57:26;12.43;;;10.20;;
1164;SDS011;571;50.930;6.926;2022-10-13T18:59:53;12.27;;;11.00;;
1164;SDS011;571;50.930;6.926;2022-10-13T19:02:19;13.10;;;10.93;;
1164;SDS011;571;50.930;6.926;2022-10-13T19:04:46;11.30;;;10.03;;
1164;SDS011;571;50.930;6.926;2022-10-13T19:07:14;14.00;;;10.83;;
1164;SDS011;571;50.930;6.926;2022-10-13T19:09:41;17.37;;;11.80;;
1164;SDS011;571;50.930;6.926;2022-10-13T19:12:08;12.33;;;10.90;;
1164;SDS011;571;50.930;6.926;2022-10-13T19:14:35;10.97;;;9.73;;
1164;SDS011;571;50.930;6.926;2022-10-13T19:17:06;13.53;;;12.00;;
1164;SDS011;571;50.930;6.926;2022-10-13T19:19:33;13.83;;;11.50;;
1164;SDS011;571;50.930;6.926;2022-10-13T19:22:02;13.53;;;10.83;;
1164;SDS011;571;50.930;6.926;2022-10-13T19:24:33;16.77;;;12.50;;
1164;SDS011;571;50.930;6.926;2022-10-13T19:27:00;14.07;;;11.17;;
1164;SDS011;571;50.930;6.926;2022-10-13T19:29:27;11.70;;;10.40;;
1164;SDS011;571;50.930;6.926;2022-10-13T19:31:54;12.13;;;10.30;;
1164;SDS011;571;50.930;6.926;2022-10-13T19:34:21;13.87;;;8.80;;
1164;SDS011;571;50.930;6.926;2022-10-13T19:36:49;8.53;;;7.63;;
1164;SDS011;571;50.930;6.926;2022-10-13T19:39:17;13.10;;;9.70;;
1164;SDS011;571;50.930;6.926;2022-10-13T19:41:47;12.83;;;9.33;;
1164;SDS011;571;50.930;6.926;2022-10-13T19:44:15;13.77;;;8.63;;
1164;SDS011;571;50.930;6.926;2022-10-13T19:46:45;12.13;;;8.20;;
1164;SDS011;571;50.930;6.926;2022-10-13T19:49:16;12.53;;;8.07;;
1164;SDS011;571;50.930;6.926;2022-10-13T19:51:44;8.97;;;6.40;;
1164;SDS011;571;50.930;6.926;2022-10-13T19:54:13;6.80;;;6.10;;
1164;SDS011;571;50.930;6.926;2022-10-13T19:56:41;11.10;;;7.07;;
1164;SDS011;571;50.930;6.926;2022-10-13T19:59:12;8.93;;;8.03;;
1164;SDS011;571;50.930;6.926;2022-10-13T20:01:40;9.53;;;8.27;;
1164;SDS011;571;50.930;6.926;2022-10-13T20:04:07;8.53;;;7.37;;
1164;SDS011;571;50.930;6.926;2022-10-13T20:06:35;11.33;;;7.50;;
1164;SDS011;571;50.930;6.926;2022-10-13T20:09:02;8.53;;;7.57;;
1164;SDS011;571;50.930;6.926;2022-10-13T20:11:30;11.60;;;6.77;;
1164;SDS011;571;50.930;6.926;2022-10-13T20:13:57;9.70;;;8.30;;
1164;SDS011;571;50.930;6.926;2022-10-13T20:16:28;10.40;;;7.77;;
1164;SDS011;571;50.930;6.926;2022-10-13T20:18:56;8.70;;;7.90;;
1164;SDS011;571;50.930;6.926;2022-10-13T20:21:24;9.00;;;7.70;;
1164;SDS011;571;50.930;6.926;2022-10-13T20:23:52;12.03;;;8.20;;
1164;SDS011;571;50.930;6.926;2022-10-13T20:26:19;8.10;;;7.30;;
1164;SDS011;571;50.930;6.926;2022-10-13T20:28:47;8.77;;;7.27;;
1164;SDS011;571;50.930;6.926;2022-10-13T20:31:17;8.90;;;7.30;;
1164;SDS011;571;50.930;6.926;2022-10-13T20:33:47;7.80;;;6.03;;
1164;SDS011;571;50.930;6.926;2022-10-13T20:36:17;8.70;;;6.40;;
1164;SDS011;571;50.930;6.926;2022-10-13T20:38:48;8.03;;;6.50;;
1164;SDS011;571;50.930;6.926;2022-10-13T20:41:16;7.67;;;6.37;;
1164;SDS011;571;50.930;6.926;2022-10-13T20:44:24;7.07;;;6.17;;
1164;SDS011;571;50.930;6.926;2022-10-13T20:46:55;8.20;;;6.23;;
1164;SDS011;571;50.930;6.926;2022-10-13T20:49:33;8.10;;;5.60;;
1164;SDS011;571;50.930;6.926;2022-10-13T20:52:12;7.07;;;6.10;;
1164;SDS011;571;50.930;6.926;2022-10-13T20:54:42;8.33;;;5.80;;
1164;SDS011;571;50.930;6.926;2022-10-13T20:57:12;9.63;;;6.50;;
1164;SDS011;571;50.930;6.926;2022-10-13T20:59:48;10.60;;;6.17;;
1164;SDS011;571;50.930;6.926;2022-10-13T21:02:23;8.50;;;6.30;;
1164;SDS011;571;50.930;6.926;2022-10-13T21:05:23;6.63;;;5.97;;
1164;SDS011;571;50.930;6.926;2022-10-13T21:08:15;12.67;;;6.33;;
1164;SDS011;571;50.930;6.926;2022-10-13T21:11:42;8.83;;;6.60;;
1164;SDS011;571;50.930;6.926;2022-10-13T21:14:33;9.17;;;7.07;;
1164;SDS011;571;50.930;6.926;2022-10-13T21:17:19;7.70;;;7.00;;
1164;SDS011;571;50.930;6.926;2022-10-13T21:20:01;7.00;;;6.40;;
1164;SDS011;571;50.930;6.926;2022-10-13T21:22:59;8.40;;;7.00;;
1164;SDS011;571;50.930;6.926;2022-10-13T21:25:36;8.50;;;7.43;;
1164;SDS011;571;50.930;6.926;2022-10-13T21:28:12;8.67;;;7.70;;
1164;SDS011;571;50.930;6.926;2022-10-13T21:30:50;12.37;;;7.17;;
1164;SDS011;571;50.930;6.926;2022-10-13T21:33:33;8.80;;;7.77;;
1164;SDS011;571;50.930;6.926;2022-10-13T21:36:09;8.07;;;7.20;;
1164;SDS011;571;50.930;6.926;2022-10-13T21:38:53;8.30;;;7.50;;
1164;SDS011;571;50.930;6.926;2022-10-13T21:41:30;10.00;;;8.20;;
1164;SDS011;571;50.930;6.926;2022-10-13T21:44:08;9.33;;;7.97;;
1164;SDS011;571;50.930;6.926;2022-10-13T21:46:51;8.27;;;7.47;;
1164;SDS011;571;50.930;6.926;2022-10-13T21:49:26;8.67;;;7.77;;
1164;SDS011;571;50.930;6.926;2022-10-13T21:52:03;8.17;;;7.27;;
1164;SDS011;571;50.930;6.926;2022-10-13T21:54:33;11.60;;;8.13;;
1164;SDS011;571;50.930;6.926;2022-10-13T21:57:02;11.50;;;7.70;;
1164;SDS011;571;50.930;6.926;2022-10-13T21:59:29;9.37;;;7.70;;
